JST978 YBCS-YPPH
Flight info
| Callsign | JST978 |
|---|---|
| Flight time | N/A |
| Altitude | 32000 |
| Route | NONUM J64 MA DCT GAFER DCT BAISH DCT ANGAS DCT BUNNY Q41 MALUP Q158 KABLI |
| Aircraft | A320/M-SDE3FGHIRWY/LB1 |
Departure
| Time | 2026-04-28 22:04 |
|---|---|
| Airport | Cairns International Airport (YBCS) |
Arrival
| Time | N/A |
|---|---|
| Airport | Perth International Airport (YPPH) |
| Time | Latitude | Longitude | Altitude | Speed | Heading |
|---|---|---|---|---|---|
| 2026-04-28 21:35 | -16.87662 | 145.75249 | 17 ft | 0 kts | 66° |
| 2026-04-28 21:53 | -16.87663 | 145.75248 | 16 ft | 2 kts | 66° |
| 2026-04-28 21:54 | -16.87674 | 145.75223 | 16 ft | 4 kts | 63° |
| 2026-04-28 21:54 | -16.87686 | 145.75198 | 17 ft | 4 kts | 58° |
| 2026-04-28 21:54 | -16.87702 | 145.75175 | 19 ft | 4 kts | 44° |
| 2026-04-28 21:54 | -16.87722 | 145.75162 | 19 ft | 4 kts | 349° |
| 2026-04-28 21:55 | -16.87731 | 145.75164 | 17 ft | 0 kts | 336° |
| 2026-04-28 21:57 | -16.87728 | 145.75163 | 18 ft | 1 kts | 336° |
| 2026-04-28 21:57 | -16.87716 | 145.75157 | 19 ft | 3 kts | 336° |
| 2026-04-28 21:57 | -16.87694 | 145.75148 | 18 ft | 4 kts | 336° |
| 2026-04-28 21:57 | -16.87664 | 145.75134 | 16 ft | 5 kts | 336° |
| 2026-04-28 21:58 | -16.87649 | 145.75102 | 18 ft | 6 kts | 263° |
| 2026-04-28 21:58 | -16.87663 | 145.75061 | 16 ft | 6 kts | 258° |
| 2026-04-28 21:58 | -16.87638 | 145.75026 | 17 ft | 7 kts | 333° |
| 2026-04-28 21:58 | -16.87592 | 145.75007 | 16 ft | 8 kts | 339° |
| 2026-04-28 21:59 | -16.87539 | 145.74984 | 16 ft | 9 kts | 337° |
| 2026-04-28 21:59 | -16.87481 | 145.74958 | 16 ft | 10 kts | 337° |
| 2026-04-28 21:59 | -16.87417 | 145.74929 | 16 ft | 11 kts | 336° |
| 2026-04-28 22:00 | -16.87270 | 145.74861 | 16 ft | 12 kts | 336° |
| 2026-04-28 22:00 | -16.87190 | 145.74825 | 16 ft | 13 kts | 337° |
| 2026-04-28 22:00 | -16.87104 | 145.74788 | 16 ft | 14 kts | 338° |
| 2026-04-28 22:00 | -16.87042 | 145.74722 | 16 ft | 14 kts | 269° |
| 2026-04-28 22:01 | -16.87078 | 145.74633 | 14 ft | 14 kts | 256° |
| 2026-04-28 22:01 | -16.87030 | 145.74550 | 14 ft | 14 kts | 338° |
| 2026-04-28 22:01 | -16.86936 | 145.74512 | 15 ft | 15 kts | 337° |
| 2026-04-28 22:01 | -16.86842 | 145.74469 | 15 ft | 15 kts | 336° |
| 2026-04-28 22:02 | -16.86746 | 145.74426 | 15 ft | 14 kts | 336° |
| 2026-04-28 22:02 | -16.86671 | 145.74390 | 17 ft | 11 kts | 328° |
| 2026-04-28 22:02 | -16.86642 | 145.74361 | 20 ft | 5 kts | 314° |
| 2026-04-28 22:02 | -16.86614 | 145.74338 | 17 ft | 5 kts | 331° |
| 2026-04-28 22:03 | -16.86593 | 145.74355 | 17 ft | 4 kts | 96° |
| 2026-04-28 22:03 | -16.86620 | 145.74372 | 17 ft | 6 kts | 155° |
| 2026-04-28 22:03 | -16.86786 | 145.74452 | 15 ft | 60 kts | 156° |
| 2026-04-28 22:03 | -16.87365 | 145.74710 | 17 ft | 118 kts | 157° |
| 2026-04-28 22:04 | -16.88266 | 145.75116 | 56 ft | 159 kts | 158° |
| 2026-04-28 22:04 | -16.89227 | 145.75533 | 824 ft | 146 kts | 149° |
| 2026-04-28 22:04 | -16.89905 | 145.76327 | 1434 ft | 152 kts | 118° |
| 2026-04-28 22:04 | -16.90141 | 145.77431 | 1969 ft | 167 kts | 92° |
| 2026-04-28 22:05 | -16.89774 | 145.78678 | 2285 ft | 197 kts | 61° |
| 2026-04-28 22:05 | -16.88691 | 145.79715 | 2436 ft | 227 kts | 42° |
| 2026-04-28 22:05 | -16.87170 | 145.80439 | 2640 ft | 260 kts | 9° |
| 2026-04-28 22:05 | -16.85318 | 145.80103 | 2962 ft | 286 kts | 332° |
| 2026-04-28 22:06 | -16.83871 | 145.78669 | 3528 ft | 293 kts | 296° |
| 2026-04-28 22:06 | -16.83355 | 145.76648 | 4187 ft | 291 kts | 267° |
| 2026-04-28 22:06 | -16.83685 | 145.74601 | 4876 ft | 285 kts | 238° |
| 2026-04-28 22:06 | -16.84822 | 145.72927 | 5515 ft | 284 kts | 226° |
| 2026-04-28 22:07 | -16.85835 | 145.71122 | 6179 ft | 294 kts | 244° |
| 2026-04-28 22:07 | -16.86448 | 145.69066 | 6847 ft | 299 kts | 254° |
| 2026-04-28 22:07 | -16.86854 | 145.66921 | 7514 ft | 303 kts | 258° |
| 2026-04-28 22:07 | -16.87188 | 145.64740 | 8230 ft | 304 kts | 260° |
| 2026-04-28 22:08 | -16.87522 | 145.62553 | 8923 ft | 306 kts | 259° |
| 2026-04-28 22:08 | -16.87881 | 145.60387 | 9583 ft | 308 kts | 259° |
| 2026-04-28 22:08 | -16.88282 | 145.58160 | 10209 ft | 310 kts | 258° |
| 2026-04-28 22:08 | -16.88718 | 145.55883 | 10385 ft | 330 kts | 258° |
| 2026-04-28 22:09 | -16.89194 | 145.53503 | 10506 ft | 348 kts | 258° |
| 2026-04-28 22:09 | -16.89711 | 145.50964 | 10636 ft | 366 kts | 258° |
| 2026-04-28 22:09 | -16.90250 | 145.48317 | 10887 ft | 377 kts | 258° |
| 2026-04-28 22:09 | -16.90795 | 145.45631 | 11409 ft | 379 kts | 258° |
| 2026-04-28 22:10 | -16.91375 | 145.42953 | 12021 ft | 378 kts | 254° |
| 2026-04-28 22:10 | -16.92340 | 145.40411 | 12638 ft | 377 kts | 243° |
| 2026-04-28 22:10 | -16.93729 | 145.38092 | 13203 ft | 377 kts | 236° |
| 2026-04-28 22:10 | -16.95226 | 145.35837 | 13708 ft | 378 kts | 236° |
| 2026-04-28 22:11 | -16.96727 | 145.33577 | 14167 ft | 379 kts | 236° |
| 2026-04-28 22:11 | -16.98232 | 145.31308 | 14585 ft | 381 kts | 236° |
| 2026-04-28 22:11 | -16.99741 | 145.29028 | 14995 ft | 383 kts | 236° |
| 2026-04-28 22:11 | -17.01256 | 145.26733 | 15403 ft | 385 kts | 236° |
| 2026-04-28 22:12 | -17.02779 | 145.24427 | 15806 ft | 386 kts | 236° |
| 2026-04-28 22:12 | -17.04309 | 145.22108 | 16215 ft | 388 kts | 236° |
| 2026-04-28 22:12 | -17.05847 | 145.19778 | 16615 ft | 391 kts | 236° |
| 2026-04-28 22:12 | -17.07395 | 145.17436 | 17007 ft | 393 kts | 235° |
| 2026-04-28 22:13 | -17.08952 | 145.15081 | 17391 ft | 395 kts | 235° |
| 2026-04-28 22:13 | -17.10515 | 145.12713 | 17786 ft | 397 kts | 235° |
| 2026-04-28 22:13 | -17.12084 | 145.10329 | 18173 ft | 399 kts | 235° |
| 2026-04-28 22:13 | -17.13659 | 145.07931 | 18536 ft | 401 kts | 235° |
| 2026-04-28 22:14 | -17.15245 | 145.05522 | 18869 ft | 403 kts | 235° |
| 2026-04-28 22:14 | -17.16839 | 145.03106 | 19205 ft | 404 kts | 235° |
| 2026-04-28 22:14 | -17.18437 | 145.00681 | 19562 ft | 406 kts | 235° |
| 2026-04-28 22:14 | -17.20036 | 144.98254 | 19907 ft | 407 kts | 235° |
| 2026-04-28 22:15 | -17.21645 | 144.95814 | 20244 ft | 408 kts | 235° |
| 2026-04-28 22:15 | -17.23260 | 144.93363 | 20572 ft | 410 kts | 235° |